Tiempo atmosférico en la estación meteorológica de Banyalbufar, Illes Balears (60 m.)



Fecha
DESCASC
Temp. máxima en grados centígrados (hora)
DESCASC
Temp. mínima en grados centígrados (hora)
DESCASC
Temp. media en grados centígrados
DESCASC
Racha de viento máxima en m/sg (hora)
DESCASC
Velocidad máxima media en intervalos de 10 minutos(hora)
DESCASC
Precipitaciones diarias en mm
DESCASC
Precipitaciones de 00:00 a 06:00 en mm
DESCASC
Precipitaciones de 06:00 a 12:00 en mm
DESCASC
Precipitaciones de 12:00 a 18:00 en mm
DESCASC
Precipitaciones de 18:00 a 24:00 en mm
DESCASC
18-01-2018 14.6 (16:20) 10.2 (19:10) 12.4 9.72 (07:40) 6.11 (04:50) 0 0 0 0 0
17-01-2018 16.6 (05:30) 11.3 (20:50) 14 14.17 (14:40) 8.89 (14:40) 0 0 0 0 0
16-01-2018 16.7 (22:10) 11.5 (00:00) 14.1 13.61 (23:00) 7.78 (20:30) 0 0 0 0 0
15-01-2018 13.3 (16:10) 7.8 (07:00) 10.6 8.06 (23:50) 4.44 (23:50) 0 0 0 0 0
14-01-2018 12.8 (04:00) 8.1 (00:00) 10.5 13.89 (00:10) 7.78 (07:50) 0 0 0 0 0
13-01-2018 13.8 (13:00) 7.7 (00:00) 10.8 16.39 (23:30) 7.78 (23:30) 0 0 0 0 0
12-01-2018 13.2 (11:50) 9.2 (00:00) 11.2 11.39 (01:10) 8.33 (02:10) 0 0 0 0 0
11-01-2018 14.2 (01:30) 11.5 (00:00) 12.8 21.67 (04:40) 12.78 (05:40) 0 0 0 0 0
10-01-2018 14 (23:20) 10.5 (00:00) 12.3 10.28 (23:40) 5.28 (23:40) 0 0 0 0 0
09-01-2018 14.1 (14:50) 10.8 (00:00) 12.5 10 (13:00) 5 (13:00) 0 0 0 0 0
08-01-2018 12.4 (13:40) 8.2 (00:00) 10.3 11.39 (14:40) 7.22 (14:30) 0.6 0 0.4 0.2 0
07-01-2018 14.9 (00:00) 7.8 (00:00) 11.3 15.83 (09:20) 8.61 (09:30) 7 0 6.8 0.2 0
06-01-2018 17.4 (18:10) 12.7 (00:00) 15 15.28 (09:30) 8.61 (11:20) 0 0 0 0 0
05-01-2018 16.9 (14:50) 12.3 (00:00) 14.6 15 (20:30) 8.89 (20:30) 0 0 0 0 0
04-01-2018 19.6 (00:40) 15.4 (23:50) 17.5 12.22 (06:30) 7.22 (09:20) 0 0 0 0 0
03-01-2018 19.7 (15:40) 14.8 (00:00) 17.3 14.72 (16:50) 7.78 (18:40) 0 0 0 0 0
02-01-2018 17.1 (23:59) 13.4 (00:00) 15.3 12.5 (17:40) 7.5 (23:10) 0 0 0 0 0
01-01-2018 15.7 (00:30) 13.3 (00:00) 14.5 18.33 (01:40) 10 (01:40) 0 0 0 0 0
31-12-2017 17.9 (13:10) 12.5 (00:00) 15.2 16.94 (20:50) 7.5 (20:50) 0 0 0 0 0
30-12-2017 17.9 (13:50) 13.5 (00:00) 15.7 11.39 (05:20) 7.22 (12:10) 0 0 0 0 0
29-12-2017 15.9 (13:50) 10.3 (00:00) 13.1 10 (17:40) 5.28 (17:40) 0 0 0 0 0
28-12-2017 15.3 (20:50) 12.5 (00:00) 13.9 18.89 (00:10) 10.28 (00:10) 0 0 0 0 0
27-12-2017 14.9 (15:00) 12.2 (00:00) 13.5 19.72 (07:20) 11.11 (21:40) 0.8 0.4 0.4 0 0
26-12-2017 15 (15:20) 10.6 (00:00) 12.8 14.44 (04:40) 6.11 (23:10) 0 0 0 0 0
25-12-2017 17.1 (14:10) 11.4 (00:00) 14.3 11.39 (10:10) 5.83 (10:40) 0 0 0 0 0
24-12-2017 15.8 (15:30) 10.8 (00:00) 13.3 7.22 (11:40) 3.61 (11:20) 0 0 0 0 0

Gráficas

Temp. máximas Temp. mínimas Temp. medias Precipitaciones Rachas de viento máximas Velocidades máximas media en intervalos de 10 minutos

Datos horarios

Fecha y hora oficial Temperatura (ºC) Velocidad del viento (km/h) Dirección del viento Racha (km/h) Dirección de racha Precipitación (mm) Presión (hPa) Tendencia (hPa) Humedad (%)
2018-01-22 23:00:00 14.8 6 Sur 16 Sur 0 -- -- 59
2018-01-22 22:00:00 13.4 7 Sur 14 Sur 0 -- -- 65
2018-01-22 21:00:00 13.4 5 Sudoeste 9 Sur 0 -- -- 70
2018-01-22 20:00:00 13.5 2 Sur 10 Este 0 -- -- 77
2018-01-22 19:00:00 13 5 Sudeste 8 Sudeste 0 -- -- 82
2018-01-22 18:00:00 14 4 Sudeste 8 Este 0 -- -- 81
2018-01-22 17:00:00 15.6 3 Sur 18 Oeste 0 -- -- 77
2018-01-22 16:00:00 18.1 2 Norte 6 Oeste 0 -- -- 65
2018-01-22 15:00:00 18 3 Noroeste 10 Nordeste 0 -- -- 63
2018-01-22 14:00:00 18 2 Norte 6 Noroeste 0 -- -- 65
2018-01-22 13:00:00 16.8 4 Norte 9 Este 0 -- -- 67
2018-01-22 12:00:00 17.6 4 Sudeste 13 Sudoeste 0 -- -- 65
2018-01-22 11:00:00 16.2 9 Sur 21 Sudoeste 0 -- -- 72
2018-01-22 10:00:00 15.3 8 Sudoeste 22 Sur 0 -- -- 74
2018-01-22 09:00:00 14.4 7 Sudoeste 14 Sur 0 -- -- 80
2018-01-22 08:00:00 13.6 13 Sudoeste 18 Sudoeste 0 -- -- 80
2018-01-22 07:00:00 14.8 8 Sudeste 19 Sudoeste 0 -- -- 78
2018-01-22 06:00:00 15.2 12 Sudoeste 31 Sudoeste 0 -- -- 74
2018-01-22 05:00:00 15.4 11 Sudoeste 23 Sudoeste 0 -- -- 74
2018-01-22 04:00:00 15.2 8 Sudoeste 23 Oeste 0 -- -- 72
2018-01-22 03:00:00 16.4 12 Oeste 25 Sudoeste 0 -- -- 67
2018-01-22 02:00:00 15 9 Sudoeste 20 Sudoeste 0 -- -- 73
2018-01-22 01:00:00 14.8 9 Sur 16 Sur 0 -- -- 75
2018-01-22 00:00:00 15.2 10 Sur 19 Sudoeste 0 -- -- 68
2018-01-21 23:00:00 16 9 Sur 15 Sur 0 -- -- 67
2018-01-21 22:00:00 15.6 13 Sur 19 Sur 0 -- -- 70
2018-01-21 21:00:00 15.5 13 Sur 23 Sur 0 -- -- 69
2018-01-21 20:00:00 16.5 9 Sudoeste 27 Sur 0 -- -- 66
2018-01-21 19:00:00 15.9 12 Sur 26 Sudoeste 0 -- -- 71
2018-01-21 18:00:00 16.6 8 Sur 25 Sudoeste 0 -- -- 66
2018-01-21 17:00:00 17.2 12 Sur 30 Sudoeste 0 -- -- 64
2018-01-21 16:00:00 18.8 9 Sudoeste 26 Sudoeste 0 -- -- 60
2018-01-21 15:00:00 18.7 12 Sur 27 Sur 0 -- -- 61
2018-01-21 14:00:00 18.7 8 Sudoeste 22 Sudoeste 0 -- -- 64
2018-01-21 13:00:00 17.4 9 Sudoeste 21 Sudoeste 0 -- -- 68
2018-01-21 12:00:00 16.9 13 Sudoeste 22 Oeste 0 -- -- 72
2018-01-21 11:00:00 15.6 10 Sudoeste 21 Sudoeste 0 -- -- 76
2018-01-21 10:00:00 15.2 10 Sudoeste 17 Sudoeste 0 -- -- 76
2018-01-21 09:00:00 15.2 8 Oeste 23 Norte 0 -- -- 76
2018-01-21 08:00:00 15.4 7 Noroeste 26 Oeste 0 -- -- 75
2018-01-21 07:00:00 15.7 14 Oeste 25 Oeste 0 -- -- 72
2018-01-21 06:00:00 15.9 10 Noroeste 31 Oeste 0 -- -- 71
2018-01-21 05:00:00 16.3 11 Sudoeste 24 Sudoeste 0 -- -- 67
2018-01-21 04:00:00 16.4 13 Sudoeste 29 Sudoeste 0 -- -- 67
2018-01-21 03:00:00 16.5 13 Sudoeste 27 Sudoeste 0 -- -- 62
2018-01-21 02:00:00 16.7 12 Sudoeste 22 Sudoeste 0 -- -- 59
2018-01-21 01:00:00 16.9 14 Sudoeste 30 Sudoeste 0 -- -- 58
2018-01-21 00:00:00 16.6 14 Sudoeste 32 Sudoeste 0 -- -- 56
2018-01-20 23:00:00 17.4 14 Sudoeste 45 Sudoeste 0 -- -- 53
2018-01-20 22:00:00 16.2 24 Sudoeste 43 Sudoeste 0 -- -- 61
2018-01-20 21:00:00 16.3 18 Sudoeste 40 Sudoeste 0 -- -- 57
2018-01-20 20:00:00 16.2 20 Sudoeste 41 Sur 0 -- -- 52
2018-01-20 19:00:00 15.3 16 Sudoeste 37 Sudoeste 0 -- -- 51
2018-01-20 18:00:00 14.3 14 Sudoeste 33 Oeste 0 -- -- 58
2018-01-20 17:00:00 14.3 15 Sudoeste 34 Oeste 0 -- -- 60
2018-01-20 16:00:00 15 13 Sudoeste 44 Oeste 0 -- -- 64
2018-01-20 15:00:00 14.5 16 Oeste 36 Oeste 0 -- -- 65
2018-01-20 14:00:00 14.8 7 Oeste 15 Oeste 0 -- -- 63
2018-01-20 13:00:00 13.8 8 Oeste 16 Oeste 0 -- -- 65
2018-01-20 12:00:00 14 8 Sudoeste 21 Noroeste 0 -- -- 70
2018-01-20 11:00:00 13 9 Noroeste 22 Noroeste 0 -- -- 78
2018-01-20 10:00:00 12.7 4 Oeste 12 Noroeste 0 -- -- 79
2018-01-20 09:00:00 12.2 5 Sur 15 Norte 0 -- -- 82
2018-01-20 08:00:00 12.9 11 Noroeste 19 Noroeste 0 -- -- 80
2018-01-20 07:00:00 12.8 9 Norte 20 Norte 0 -- -- 80
2018-01-20 06:00:00 12.9 16 Noroeste 30 Noroeste 0 -- -- 80
2018-01-20 05:00:00 12.8 22 Norte 48 Noroeste 0 -- -- 80
2018-01-20 04:00:00 13.1 30 Norte 42 Noroeste 0 -- -- 81
2018-01-20 03:00:00 13.5 29 Norte 43 Norte 0 -- -- 80
2018-01-20 02:00:00 13.5 35 Norte 47 Noroeste 0 -- -- 76
2018-01-20 01:00:00 14 13 Norte 27 Sudoeste 0 -- -- 84
2018-01-20 00:00:00 13.1 19 Sudoeste 28 Sudoeste 0 -- -- 82
2018-01-19 23:00:00 12.7 11 Sudoeste 21 Sur 0 -- -- 85
2018-01-19 22:00:00 12.5 6 Sudoeste 16 Sudoeste 0 -- -- 79
2018-01-19 21:00:00 12.6 13 Sudoeste 19 Sudoeste 0 -- -- 78
2018-01-19 20:00:00 12.1 3 Sur 14 Sudoeste 0 -- -- 80
2018-01-19 19:00:00 11.6 3 Sur 6 Sur 0 -- -- 81
2018-01-19 18:00:00 12 3 Sudeste 7 Sur 0 -- -- 83
2018-01-19 17:00:00 13.5 0 Calma 8 Norte 0 -- -- 80
2018-01-19 16:00:00 13.8 4 Norte 9 Norte 0 -- -- 79
2018-01-19 15:00:00 13.8 5 Norte 12 Norte 0 -- -- 80
2018-01-19 14:00:00 13.8 6 Norte 12 Noroeste 0 -- -- 79
2018-01-19 13:00:00 14.7 6 Noroeste 18 Sudoeste 0 -- -- 77
2018-01-19 12:00:00 13.9 6 Sur 12 Sudoeste 0 -- -- 83
2018-01-19 11:00:00 12.8 5 Sudoeste 9 Sudoeste 0 -- -- 88
2018-01-19 10:00:00 11.3 7 Sur 11 Sur 0 -- -- 88
2018-01-19 09:00:00 10.1 6 Sur 13 Sur 0 -- -- 87
2018-01-19 08:00:00 9.7 9 Sur 13 Sur 0 -- -- 85
2018-01-19 07:00:00 10 9 Sur 13 Sur 0 -- -- 84
2018-01-19 06:00:00 9.8 6 Sur 11 Sur 0 -- -- 86
2018-01-19 05:00:00 10.1 8 Sur 12 Sur 0 -- -- 87
2018-01-19 04:00:00 10.2 9 Sur 13 Sur 0 -- -- 87
2018-01-19 03:00:00 10.1 7 Sur 12 Sur 0 -- -- 87
2018-01-19 02:00:00 9.9 7 Sur 13 Sur 0 -- -- 85
2018-01-19 01:00:00 10 5 Sur 10 Sur 0 -- -- 85
2018-01-19 00:00:00 10.5 5 Sudeste 9 Sudeste 0 -- -- 84
2018-01-18 23:00:00 11.2 6 Sudeste 15 Sur 0 -- -- 83
2018-01-18 22:00:00 11.6 7 Sur 18 Sur 0 -- -- 84
2018-01-18 21:00:00 11.3 12 Sur 18 Sur 0 -- -- 88
2018-01-18 20:00:00 10.3 10 Sur 23 Sur 0 -- -- 92
2018-01-18 19:00:00 10.3 9 Sur 12 Sur 0 -- -- 93
2018-01-18 18:00:00 11.2 5 Sur 8 Sur 0 -- -- 92
2018-01-18 17:00:00 13.1 2 Sur 6 Norte 0 -- -- 88
2018-01-18 16:00:00 14.5 4 Norte 6 Noroeste 0 -- -- 88
2018-01-18 15:00:00 13.6 3 Norte 7 Nordeste 0 -- -- 90
2018-01-18 14:00:00 12.7 3 Norte 9 Norte 0 -- -- 91
2018-01-18 13:00:00 12.8 5 Norte 14 Norte 0 -- -- 89
2018-01-18 12:00:00 13 6 Norte 17 Norte 0 -- -- 85
2018-01-18 11:00:00 13.7 9 Norte 18 Norte 0 -- -- 81
2018-01-18 10:00:00 13.2 3 Sudoeste 18 Norte 0 -- -- 81
2018-01-18 09:00:00 12.7 6 Sudoeste 28 Sur 0 -- -- 77
2018-01-18 08:00:00 12.1 17 Sur 35 Sur 0 -- -- 78
2018-01-18 07:00:00 12.1 16 Sur 30 Sur 0 -- -- 79
2018-01-18 06:00:00 12.1 18 Sur 28 Sur 0 -- -- 80
2018-01-18 05:00:00 12.1 15 Sur 33 Sudoeste 0 -- -- 80
2018-01-18 04:00:00 11.9 14 Sur 27 Sur 0 -- -- 80
2018-01-18 03:00:00 12.2 14 Sur 29 Sur 0 -- -- 80
2018-01-18 02:00:00 12 13 Sudeste 32 Sudeste 0 -- -- 81
2018-01-18 01:00:00 12.1 17 Sudeste 33 Sudeste 0 -- -- 81
2018-01-18 00:00:00 12.1 19 Sudeste 31 Sudeste 0 -- -- 81
2018-01-17 23:00:00 12.2 16 Sudeste 28 Sudeste 0 -- -- 80
2018-01-17 22:00:00 12.3 13 Sudeste 28 Sudeste 0 -- -- 78
2018-01-17 21:00:00 11.9 13 Sudeste 22 Sudeste 0 -- -- 77
2018-01-17 20:00:00 12.3 7 Sur 16 Sur 0 -- -- 76
2018-01-17 19:00:00 13.3 7 Oeste 23 Norte 0 -- -- 74
2018-01-17 18:00:00 13.9 13 Norte 30 Norte 0 -- -- 70
2018-01-17 17:00:00 14.2 13 Noroeste 30 Norte 0 -- -- 69
2018-01-17 16:00:00 15 17 Noroeste 35 Oeste 0 -- -- 62
2018-01-17 15:00:00 15.4 13 Norte 51 Norte 0 -- -- 61
2018-01-17 14:00:00 15.4 17 Noroeste 39 Noroeste 0 -- -- 61
2018-01-17 13:00:00 15.6 13 Noroeste 40 Norte 0 -- -- 64
2018-01-17 12:00:00 15.5 15 Noroeste 36 Norte 0 -- -- 66
2018-01-17 11:00:00 15.7 17 Norte 33 Norte 0 -- -- 64
2018-01-17 10:00:00 15.7 15 Sudoeste 33 Sudoeste 0 -- -- 64
2018-01-17 09:00:00 15.8 10 Sudoeste 28 Oeste 0 -- -- 60
2018-01-17 08:00:00 15.9 10 Oeste 42 Sur 0 -- -- 62
2018-01-17 07:00:00 16.4 18 Sudoeste 42 Sur 0 -- -- 56
2018-01-17 06:00:00 16.3 19 Sudoeste 36 Sur 0 -- -- 57
2018-01-17 05:00:00 16.2 15 Sudoeste 38 Sudoeste 0 -- -- 56
2018-01-17 04:00:00 15.4 13 Sudoeste 23 Oeste 0 -- -- 64
2018-01-17 03:00:00 15.2 15 Sudoeste 31 Sur -- -- -- 67
2018-01-17 02:00:00 14.8 12 Oeste 31 Sudoeste 0 -- -- 76
2018-01-17 01:00:00 15.5 20 Sudoeste 36 Sudoeste 0 -- -- 69
2018-01-17 00:00:00 15.8 16 Sudoeste 43 Sudoeste 0 -- -- 65
2018-01-16 23:00:00 16.6 27 Sudoeste 49 Sudoeste 0 -- -- 58
2018-01-16 22:00:00 16.6 24 Sudoeste 41 Sudoeste 0 -- -- 56
2018-01-16 21:00:00 16.6 22 Sudoeste 47 Sudoeste 0 -- -- 53
2018-01-16 20:00:00 15.9 19 Sudoeste 37 Sur 0 -- -- 54
2018-01-16 19:00:00 15.5 21 Sudoeste 38 Sudoeste 0 -- -- 54
2018-01-16 18:00:00 14.9 15 Sudoeste 37 Sudoeste 0 -- -- 59
2018-01-16 17:00:00 14.8 19 Sudoeste 40 Oeste 0 -- -- 61
2018-01-16 16:00:00 15.4 18 Oeste 40 Sudoeste 0 -- -- 63
2018-01-16 15:00:00 15 22 Oeste 43 Oeste 0 -- -- 67
2018-01-16 14:00:00 14.9 18 Sudoeste 37 Oeste 0 -- -- 69
2018-01-16 13:00:00 14.4 20 Oeste 37 Oeste 0 -- -- 69
2018-01-16 12:00:00 14.1 16 Sudoeste 35 Sudoeste 0 -- -- 68
2018-01-16 11:00:00 13.7 15 Sudoeste 34 Oeste 0 -- -- 67
2018-01-16 10:00:00 12.9 12 Sudoeste 41 Oeste 0 -- -- 69
2018-01-16 09:00:00 13 14 Sudoeste 37 Sudoeste 0 -- -- 58
2018-01-16 08:00:00 12.9 13 Sudoeste 34 Sudoeste 0 -- -- 62
2018-01-16 07:00:00 12.8 20 Sudoeste 39 Sudoeste 0 -- -- 66
2018-01-16 06:00:00 12.7 14 Sudoeste 39 Sudoeste 0 -- -- 73
2018-01-16 05:00:00 12.5 16 Sudoeste 41 Sur 0 -- -- 77
2018-01-16 04:00:00 12.6 17 Sudoeste 37 Oeste 0 -- -- 75
2018-01-16 03:00:00 12.4 13 Sudoeste 31 Sudoeste 0 -- -- 66
2018-01-16 02:00:00 12.4 14 Sudoeste 33 Sur 0 -- -- 65
2018-01-16 01:00:00 12.1 14 Sudoeste 33 Sudoeste 0 -- -- 65
2018-01-16 00:00:00 11.5 14 Sudoeste 29 Sudoeste 0 -- -- 68
2018-01-15 23:00:00 10.9 12 Sudoeste 26 Sudoeste 0 -- -- 72
2018-01-15 22:00:00 10 12 Sudoeste 27 Sur 0 -- -- 80
2018-01-15 21:00:00 9.7 13 Sur 24 Sudoeste 0 -- -- 83
2018-01-15 20:00:00 8.9 12 Sudoeste 17 Sudoeste 0 -- -- 82
2018-01-15 19:00:00 8.1 8 Sur 17 Sur 0 -- -- 82
2018-01-15 18:00:00 8.7 10 Sur 14 Sur 0 -- -- 81
2018-01-15 17:00:00 9.6 9 Sur 12 Sur 0 -- -- 76
2018-01-15 16:00:00 13 2 Sudoeste 9 Sudoeste 0 -- -- 68
2018-01-15 15:00:00 13.1 7 Noroeste 17 Norte 0 -- -- 69
2018-01-15 14:00:00 12.6 10 Norte 21 Norte 0 -- -- 70
2018-01-15 13:00:00 12 7 Noroeste 13 Norte 0 -- -- 73
2018-01-15 12:00:00 12.4 3 Sudoeste 10 Sur 0 -- -- 74
2018-01-15 11:00:00 11.5 4 Sudoeste 15 Norte 0 -- -- 77
2018-01-15 10:00:00 11 5 Noroeste 17 Noroeste 0 -- -- 79
2018-01-15 09:00:00 9.1 9 Sur 12 Sur 0 -- -- 85
2018-01-15 08:00:00 8.1 9 Sur 13 Sur 0 -- -- 84
2018-01-15 07:00:00 7.8 10 Sur 14 Sur 0 -- -- 83
2018-01-15 06:00:00 9 5 Sudeste 13 Sur 0 -- -- 82
2018-01-15 05:00:00 9.2 8 Sur 10 Sur 0 -- -- 80
2018-01-15 04:00:00 10.1 2 Nordeste 11 Norte 0 -- -- 78
2018-01-15 03:00:00 10 3 Sur 15 Noroeste 0 -- -- 77
2018-01-15 02:00:00 11.3 8 Norte 16 Norte 0 -- -- 78
2018-01-15 01:00:00 11.2 8 Norte 16 Norte 0 -- -- 79
2018-01-15 00:00:00 9.2 8 Sur 15 Sur 0 -- -- 83
2018-01-14 23:00:00 8.1 10 Sur 13 Sur 0 -- -- 82
2018-01-14 22:00:00 8.2 8 Sur 12 Sur 0 -- -- 81
2018-01-14 21:00:00 8.6 8 Sur 12 Sur 0 -- -- 80
2018-01-14 20:00:00 8.3 10 Sur 12 Sur 0 -- -- 79
2018-01-14 19:00:00 8.6 9 Sur 12 Sur 0 -- -- 76
2018-01-14 18:00:00 10.5 3 Sudeste 10 Noroeste 0 -- -- 69
2018-01-14 17:00:00 11.7 7 Norte 20 Norte 0 -- -- 65
2018-01-14 16:00:00 11.9 10 Noroeste 22 Noroeste 0 -- -- 66
2018-01-14 15:00:00 12 7 Noroeste 14 Oeste 0 -- -- 73
2018-01-14 14:00:00 12.1 4 Oeste 13 Noroeste 0 -- -- 76
2018-01-14 13:00:00 11.8 4 Norte 16 Noroeste 0 -- -- 77
2018-01-14 12:00:00 11.6 13 Norte 23 Norte 0 -- -- 77
2018-01-14 11:00:00 11.7 15 Norte 25 Noroeste 0 -- -- 76
2018-01-14 10:00:00 11.7 11 Norte 28 Norte 0 -- -- 76
2018-01-14 09:00:00 11.4 20 Norte 30 Norte 0 -- -- 76
2018-01-14 08:00:00 11.6 25 Norte 48 Norte 0 -- -- 74
2018-01-14 07:00:00 12.3 15 Sudoeste 48 Oeste 0 -- -- 72
2018-01-14 06:00:00 12.6 12 Oeste 37 Sudoeste 0 -- -- 72
2018-01-14 05:00:00 12.3 13 Sudoeste 32 Sudoeste 0 -- -- 74
2018-01-14 04:00:00 12.8 11 Sur 31 Sur 0 -- -- 68
2018-01-14 03:00:00 12.4 14 Sur 34 Sudoeste 0 -- -- 69
2018-01-14 02:00:00 12.3 12 Sudoeste 40 Sudeste 0 -- -- 67
2018-01-14 01:00:00 12.6 19 Sur 50 Sudeste 0 -- -- 68
2018-01-14 00:00:00 12.6 25 Sur 59 Sudeste 0 -- -- 67
2018-01-13 23:00:00 12.4 16 Sur 49 Sur 0 -- -- 68
2018-01-13 22:00:00 12.2 18 Sur 41 Sudoeste 0 -- -- 73
2018-01-13 21:00:00 12.3 13 Sur 36 Sudoeste 0 -- -- 73
2018-01-13 20:00:00 12.5 10 Sur 34 Sur 0 -- -- 72
2018-01-13 19:00:00 12.6 13 Sur 45 Sudeste 0 -- -- 72
2018-01-13 18:00:00 12.4 21 Sudeste 45 Sudeste 0 -- -- 70
2018-01-13 17:00:00 12.5 27 Sudeste 51 Sur 0 -- -- 68
2018-01-13 16:00:00 12.9 23 Sudeste 44 Sudeste 0 -- -- 69
2018-01-13 15:00:00 12.9 20 Sudeste 39 Sur 0 -- -- 67
2018-01-13 14:00:00 13.1 16 Sur 39 Sudeste 0 -- -- 62
2018-01-13 13:00:00 13.8 17 Sudeste 31 Sudeste 0 -- -- 56
2018-01-13 12:00:00 12.7 17 Sudeste 31 Sudeste 0 -- -- 59
2018-01-13 11:00:00 11.9 10 Sudeste 24 Sudeste 0 -- -- 71
2018-01-13 10:00:00 10 10 Sur 19 Sudeste 0 -- -- 77
2018-01-13 09:00:00 9.5 13 Sur 22 Sur 0 -- -- 78
2018-01-13 08:00:00 8.9 13 Sur 19 Sur 0 -- -- 83
2018-01-13 07:00:00 7.7 11 Sur 19 Sur 0 -- -- 86
2018-01-13 06:00:00 7.8 11 Sur 14 Sur 0 -- -- 85
2018-01-13 05:00:00 7.8 11 Sur 15 Sur 0 -- -- 85
2018-01-13 04:00:00 8.1 9 Sur 14 Sur 0 -- -- 83
2018-01-13 03:00:00 8.5 11 Sur 17 Sur 0 -- -- 83
2018-01-13 02:00:00 8.3 11 Sur 16 Sur 0 -- -- 81
2018-01-13 01:00:00 8.6 11 Sur 16 Sudoeste 0 -- -- 80
2018-01-13 00:00:00 9.2 10 Sur 14 Sur 0 -- -- 79
2018-01-12 23:00:00 10.7 4 Sur 15 Norte 0 -- -- 73
2018-01-12 22:00:00 11.8 8 Norte 23 Norte 0 -- -- 69
2018-01-12 21:00:00 12 6 Noroeste 21 Noroeste 0 -- -- 70
2018-01-12 20:00:00 12 8 Noroeste 23 Noroeste 0 -- -- 69
2018-01-12 19:00:00 12.2 16 Norte 24 Noroeste 0 -- -- 68
2018-01-12 18:00:00 12.1 13 Noroeste 29 Noroeste 0 -- -- 70
2018-01-12 17:00:00 12 12 Norte 24 Norte 0 -- -- 74
2018-01-12 16:00:00 11.8 10 Noroeste 18 Norte 0 -- -- 75
2018-01-12 15:00:00 11.5 9 Noroeste 20 Noroeste 0 -- -- 74
2018-01-12 14:00:00 11.6 8 Noroeste 17 Oeste 0 -- -- 76
2018-01-12 13:00:00 12.3 8 Oeste 13 Oeste 0 -- -- 74
2018-01-12 12:00:00 12.5 5 Sudoeste 9 Sudoeste 0 -- -- 74
2018-01-12 11:00:00 11.2 5 Sur 15 Norte 0 -- -- 79
2018-01-12 10:00:00 11.2 11 Norte 22 Noroeste 0 -- -- 80
2018-01-12 09:00:00 11.3 16 Norte 28 Noroeste 0 -- -- 81
2018-01-12 08:00:00 11.2 6 Noroeste 19 Noroeste 0 -- -- 78
2018-01-12 07:00:00 11.1 10 Noroeste 19 Noroeste 0 -- -- 79
2018-01-12 06:00:00 10.9 7 Norte 19 Norte 0 -- -- 79
2018-01-12 05:00:00 11.2 13 Norte 22 Norte 0 -- -- 80
2018-01-12 04:00:00 11.1 15 Norte 28 Norte 0 -- -- 79
2018-01-12 03:00:00 11.3 21 Norte 40 Noroeste 0 -- -- 78
2018-01-12 02:00:00 11.3 30 Norte 41 Noroeste 0 -- -- 77
2018-01-12 01:00:00 11.6 26 Norte 37 Norte 0 -- -- 75
2018-01-12 00:00:00 11.8 26 Norte 37 Norte 0 -- -- 72
2018-01-11 23:00:00 11.9 24 Norte 40 Noroeste 0 -- -- 70
2018-01-11 22:00:00 12.1 26 Noroeste 43 Norte 0 -- -- 67
2018-01-11 21:00:00 12.4 31 Norte 49 Noroeste 0 -- -- 66
2018-01-11 20:00:00 12.4 30 Norte 44 Noroeste 0 -- -- 64
2018-01-11 19:00:00 12.3 32 Norte 46 Noroeste 0 -- -- 64
2018-01-11 18:00:00 11.9 32 Norte 52 Norte 0 -- -- 67
2018-01-11 17:00:00 11.9 22 Noroeste 51 Noroeste 0 -- -- 66
2018-01-11 16:00:00 12 30 Noroeste 56 Norte 0 -- -- 63
2018-01-11 15:00:00 11.8 32 Norte 51 Noroeste 0 -- -- 62
2018-01-11 14:00:00 11.5 31 Norte 45 Noroeste 0 -- -- 65
2018-01-11 13:00:00 11.9 21 Noroeste 46 Noroeste 0 -- -- 64
2018-01-11 12:00:00 11.7 33 Norte 68 Noroeste 0 -- -- 62
2018-01-11 11:00:00 12 36 Norte 53 Noroeste 0 -- -- 60
2018-01-11 10:00:00 11.9 36 Norte 57 Norte 0 -- -- 64
2018-01-11 09:00:00 11.8 25 Norte 51 Norte 0 -- -- 62
2018-01-11 08:00:00 11.6 36 Norte 60 Noroeste 0 -- -- 63
2018-01-11 07:00:00 12.1 37 Norte 58 Norte 0 -- -- 63
2018-01-11 06:00:00 12.5 34 Norte 66 Norte 0 -- -- 59
2018-01-11 05:00:00 12.3 42 Norte 78 Norte 0 -- -- 66
2018-01-11 04:00:00 13 33 Norte 51 Noroeste 0 -- -- 66
2018-01-11 03:00:00 13.6 22 Noroeste 52 Oeste 0 -- -- 71
2018-01-11 02:00:00 14 14 Oeste 54 Oeste 0 -- -- 75
2018-01-11 01:00:00 14.1 13 Sudoeste 33 Sudoeste 0 -- -- 76
2018-01-11 00:00:00 13.8 16 Sudoeste 37 Sudoeste 0 -- -- 77
2018-01-10 23:00:00 13.6 13 Sudoeste 36 Sudoeste 0 -- -- 79
2018-01-10 22:00:00 12.7 8 Sudoeste 24 Sur 0 -- -- 79
2018-01-10 21:00:00 11.9 13 Sudoeste 20 Sudoeste 0 -- -- 80
2018-01-10 20:00:00 10.5 5 Sudoeste 16 Sur 0 -- -- 88
2018-01-10 19:00:00 12.1 3 Sudoeste 16 Noroeste 0 -- -- 84
2018-01-10 18:00:00 12.7 10 Norte 20 Noroeste 0 -- -- 84
2018-01-10 17:00:00 12.8 10 Noroeste 22 Sudoeste 0 -- -- 83
2018-01-10 16:00:00 13.1 7 Oeste 26 Noroeste 0 -- -- 82
2018-01-10 15:00:00 13 8 Oeste 24 Oeste 0 -- -- 81
2018-01-10 14:00:00 13.2 10 Oeste 28 Oeste 0 -- -- 83
2018-01-10 13:00:00 13.4 16 Oeste 26 Oeste 0 -- -- 82
2018-01-10 12:00:00 13.3 11 Sudoeste 29 Oeste 0 -- -- 82
2018-01-10 11:00:00 13 12 Sudoeste 30 Sudoeste 0 -- -- 80
2018-01-10 10:00:00 12.9 12 Sudoeste 28 Oeste 0 -- -- 77
2018-01-10 09:00:00 12.4 9 Sudoeste 32 Oeste 0 -- -- 77
2018-01-10 08:00:00 12.7 10 Sudoeste 33 Sudoeste 0 -- -- 78
2018-01-10 07:00:00 13.1 15 Sudoeste 32 Sudoeste 0 -- -- 77
2018-01-10 06:00:00 13 10 Sudoeste 30 Sudoeste 0 -- -- 73
2018-01-10 05:00:00 13 13 Sudoeste 28 Sudoeste 0 -- -- 68
2018-01-10 04:00:00 12.6 10 Sudoeste 36 Sudoeste 0 -- -- 70
2018-01-10 03:00:00 12.4 10 Sudoeste 32 Sudoeste 0 -- -- 70
2018-01-10 02:00:00 12.4 12 Sudoeste 33 Sudoeste 0 -- -- 71
2018-01-10 01:00:00 12.1 13 Sudoeste 33 Sudoeste 0 -- -- 73
2018-01-10 00:00:00 12.3 12 Sudoeste 33 Sudoeste 0 -- -- 68
2018-01-09 23:00:00 11.8 8 Sudoeste 26 Sudoeste 0 -- -- 68
2018-01-09 22:00:00 12 7 Sudoeste 25 Sudoeste 0 -- -- 67
2018-01-09 21:00:00 12 10 Sudoeste 21 Sudoeste 0 -- -- 67
2018-01-09 20:00:00 12 11 Sur 22 Sudoeste 0 -- -- 71
2018-01-09 19:00:00 12.4 9 Sudoeste 22 Sudoeste 0 -- -- 68
2018-01-09 18:00:00 11.9 6 Sur 26 Oeste 0 -- -- 68
2018-01-09 17:00:00 12.7 11 Sudoeste 26 Sudoeste 0 -- -- 71
2018-01-09 16:00:00 13.5 9 Sudoeste 24 Sudoeste 0 -- -- 66
2018-01-09 15:00:00 14 14 Oeste 30 Oeste 0 -- -- 63
2018-01-09 14:00:00 13.4 9 Sudoeste 33 Sudoeste 0 -- -- 69
2018-01-09 13:00:00 13.5 18 Sudoeste 36 Sudoeste 0 -- -- 67
2018-01-09 12:00:00 13.2 14 Oeste 31 Oeste 0 -- -- 70
2018-01-09 11:00:00 12.2 8 Sudoeste 28 Sudoeste 0 -- -- 71
2018-01-09 10:00:00 12 12 Sudoeste 22 Sudoeste 0 -- -- 71
2018-01-09 09:00:00 11.3 7 Sur 24 Sudoeste 0 -- -- 72
2018-01-09 08:00:00 11.1 6 Sudoeste 27 Oeste 0 -- -- 74
2018-01-09 07:00:00 11.3 8 Sudoeste 23 Sur 0 -- -- 75
2018-01-09 06:00:00 11.4 8 Sudoeste 22 Sudoeste 0 -- -- 75
2018-01-09 05:00:00 11.5 12 Sudoeste 30 Sudoeste 0 -- -- 74
2018-01-09 04:00:00 11.1 7 Sur 22 Sudoeste 0 -- -- 75
2018-01-09 03:00:00 11.4 10 Sudoeste 31 Sudoeste 0 -- -- 74
2018-01-09 02:00:00 10.8 8 Sur 23 Sudoeste 0 -- -- 77
2018-01-09 01:00:00 11.5 8 Sudoeste 23 Sudoeste 0 -- -- 77
2018-01-09 00:00:00 11.4 8 Sudoeste 24 Sudoeste 0 -- -- 77
2018-01-08 23:00:00 11.4 10 Sudoeste 20 Sudoeste 0 -- -- 74
2018-01-08 22:00:00 11.9 7 Oeste 21 Noroeste 0 -- -- 69
2018-01-08 21:00:00 11.9 8 Noroeste 26 Sudoeste 0 -- -- 69
2018-01-08 20:00:00 11.6 7 Oeste 26 Sudoeste 0 -- -- 74
2018-01-08 19:00:00 11.5 12 Oeste 35 Noroeste 0 -- -- 76
2018-01-08 18:00:00 11.4 14 Noroeste 29 Noroeste 0 -- -- 76
2018-01-08 17:00:00 11.6 14 Noroeste 29 Oeste 0 -- -- 76
2018-01-08 16:00:00 11.8 15 Norte 34 Norte 0 -- -- 81
2018-01-08 15:00:00 11.8 25 Norte 41 Noroeste 0 -- -- 84
2018-01-08 14:00:00 12.4 21 Norte 31 Norte 0 -- -- 78
2018-01-08 13:00:00 12.3 18 Norte 29 Noroeste 0.2 -- -- 79
2018-01-08 12:00:00 10.9 5 Sudoeste 14 Sudoeste 0.2 -- -- 87
2018-01-08 11:00:00 10.7 4 Sudeste 15 Sudeste 0 -- -- 85
2018-01-08 10:00:00 10.5 7 Sudeste 16 Este 0.2 -- -- 83
2018-01-08 09:00:00 11.2 9 Nordeste 21 Nordeste 0 -- -- 81
2018-01-08 08:00:00 10.1 6 Sudeste 12 Este 0 -- -- 80
2018-01-08 07:00:00 9.3 6 Sudeste 14 Sudeste 0 -- -- 80
2018-01-08 06:00:00 9.1 6 Sur 16 Sudeste 0 -- -- 79
2018-01-08 05:00:00 9.1 10 Sudeste 16 Sudeste 0 -- -- 79
2018-01-08 04:00:00 9.1 7 Sudeste 15 Este 0 -- -- 79
2018-01-08 03:00:00 8.2 8 Sur 15 Sur 0 -- -- 81
2018-01-08 02:00:00 8.9 11 Sur 17 Sur 0 -- -- 80
2018-01-08 01:00:00 8.4 6 Sur 15 Sur 0 -- -- 80
2018-01-08 00:00:00 8.6 11 Sur 17 Sur 0 -- -- 82
2018-01-07 23:00:00 7.8 8 Sur 14 Sur 0 -- -- 85
2018-01-07 22:00:00 7.9 10 Sur 14 Sur 0 -- -- 85
2018-01-07 21:00:00 8.6 12 Sur 18 Sur 0 -- -- 84
2018-01-07 20:00:00 9 11 Sur 16 Sur 0 -- -- 83
2018-01-07 19:00:00 9.4 11 Sur 17 Sur 0 -- -- 82
2018-01-07 18:00:00 10.2 12 Sudoeste 17 Sudoeste 0 -- -- 79
2018-01-07 17:00:00 12.3 3 Sudoeste 24 Oeste 0 -- -- 73
2018-01-07 16:00:00 12.9 8 Oeste 20 Sudoeste 0 -- -- 76
2018-01-07 15:00:00 12.8 7 Sudoeste 18 Este 0 -- -- 81
2018-01-07 14:00:00 12.4 4 Sudeste 24 Sur 0 -- -- 81
2018-01-07 13:00:00 11.2 13 Sur 35 Sudeste 0.2 -- -- 88
2018-01-07 12:00:00 10.6 15 Sudeste 30 Sudeste 0 -- -- 89
2018-01-07 11:00:00 10.4 15 Sudeste 31 Sur 0.6 -- -- 85
2018-01-07 10:00:00 10.1 16 Sur 57 Sudeste 3 -- -- 83
2018-01-07 09:00:00 10.3 16 Sudeste 41 Sur 1.8 -- -- 82
2018-01-07 08:00:00 10.5 6 Sur 32 Sur 1.4 -- -- 77
2018-01-07 07:00:00 13.1 6 Oeste 38 Sur 0 -- -- 69
2018-01-07 06:00:00 13.6 9 Oeste 33 Sudoeste 0 -- -- 69
2018-01-07 05:00:00 13.5 5 Norte 33 Sudoeste 0 -- -- 70
2018-01-07 04:00:00 13.5 6 Oeste 37 Oeste 0 -- -- 70
2018-01-07 03:00:00 13.7 12 Oeste 56 Oeste 0 -- -- 72
2018-01-07 02:00:00 13.8 14 Sudoeste 49 Sur 0 -- -- 70
2018-01-07 01:00:00 14.3 13 Sudoeste 49 Sudeste 0 -- -- 66
2018-01-07 00:00:00 14.9 13 Oeste 33 Sur 0 -- -- 71
2018-01-06 23:00:00 15.4 19 Sur 42 Sur 0 -- -- 69
2018-01-06 22:00:00 15.7 10 Sudeste 45 Sur 0 -- -- 69
2018-01-06 21:00:00 16 18 Sur 50 Sur 0 -- -- 60
2018-01-06 20:00:00 16 16 Sur 47 Sudoeste 0 -- -- 56
2018-01-06 19:00:00 16.9 17 Sudoeste 45 Sudoeste 0 -- -- 59
2018-01-06 18:00:00 16.9 10 Sudeste 45 Este 0 -- -- 54
2018-01-06 17:00:00 16.7 13 Sudeste 48 Este 0 -- -- 63
2018-01-06 16:00:00 16.8 22 Sudeste 48 Sudeste 0 -- -- 67
2018-01-06 15:00:00 16.2 20 Sudeste 44 Sudeste 0 -- -- 75
2018-01-06 14:00:00 16.3 21 Sudeste 42 Sudeste 0 -- -- 73
2018-01-06 13:00:00 16 24 Sudeste 53 Sudeste 0 -- -- 75
2018-01-06 12:00:00 15.8 30 Sudeste 55 Sudeste 0 -- -- 77
2018-01-06 11:00:00 15.2 29 Sudeste 48 Sudeste 0 -- -- 75
2018-01-06 10:00:00 15.5 22 Sudeste 55 Sudoeste 0 -- -- 69
2018-01-06 09:00:00 15.4 18 Sudeste 35 Sur 0 -- -- 62
2018-01-06 08:00:00 14 18 Sur 38 Sudeste 0 -- -- 77
2018-01-06 07:00:00 14 8 Sudeste 34 Oeste 0 -- -- 79
2018-01-06 06:00:00 13.2 8 Sur 34 Sudoeste 0 -- -- 78
2018-01-06 05:00:00 12.7 6 Sudeste 14 Sur 0 -- -- 78
2018-01-06 04:00:00 13.1 4 Sudeste 21 Sudoeste 0 -- -- 75
2018-01-06 03:00:00 14 13 Sudoeste 27 Sudoeste 0 -- -- 74
2018-01-06 02:00:00 14.1 13 Sur 30 Sur 0 -- -- 71
2018-01-06 01:00:00 14.6 15 Sudoeste 36 Sudoeste 0 -- -- 63
2018-01-06 00:00:00 14.9 15 Sudoeste 34 Sudoeste 0 -- -- 60
2018-01-05 23:00:00 15.3 16 Sudoeste 40 Sur 0 -- -- 56
2018-01-05 22:00:00 15.4 16 Sudoeste 39 Sudoeste 0 -- -- 56
2018-01-05 21:00:00 15.8 21 Sudoeste 54 Sudoeste 0 -- -- 54
2018-01-05 20:00:00 15.8 18 Sudoeste 53 Sudoeste 0 -- -- 54
2018-01-05 19:00:00 15.7 19 Sudoeste 41 Sudoeste 0 -- -- 54
2018-01-05 18:00:00 15.9 19 Sudoeste 41 Sudoeste 0 -- -- 55
2018-01-05 17:00:00 15.8 19 Sudoeste 43 Sudoeste 0 -- -- 57
2018-01-05 16:00:00 16.5 14 Sudoeste 40 Sudoeste 0 -- -- 55
2018-01-05 15:00:00 16.6 17 Sudoeste 41 Sudoeste 0 -- -- 56
2018-01-05 14:00:00 16.5 17 Sudoeste 41 Oeste 0 -- -- 57
2018-01-05 13:00:00 15.9 24 Sudoeste 43 Oeste 0 -- -- 62
2018-01-05 12:00:00 15.6 20 Sudoeste 49 Oeste 0 -- -- 66
2018-01-05 11:00:00 15 12 Sudoeste 29 Oeste 0 -- -- 76
2018-01-05 10:00:00 14.4 11 Sudoeste 30 Sudoeste 0 -- -- 78
2018-01-05 09:00:00 12.3 8 Sur 13 Sur 0 -- -- 71
2018-01-05 08:00:00 12.6 7 Sur 12 Sur 0 -- -- 69
2018-01-05 07:00:00 13.6 8 Sur 17 Sur 0 -- -- 66
2018-01-05 06:00:00 13.7 11 Sur 17 Sur 0 -- -- 66
2018-01-05 05:00:00 13.2 12 Sur 19 Sur 0 -- -- 68
2018-01-05 04:00:00 12.5 13 Sur 20 Sur 0 -- -- 76
2018-01-05 03:00:00 12.6 11 Sur 16 Sur 0 -- -- 79
2018-01-05 02:00:00 13.3 9 Sur 18 Sudoeste 0 -- -- 80
2018-01-05 01:00:00 15.1 9 Sur 32 Sudoeste 0 -- -- 79
2018-01-05 00:00:00 15.4 11 Sudoeste 26 Sudoeste 0 -- -- 76
2018-01-04 23:00:00 15.8 12 Sudoeste 26 Sudoeste 0 -- -- 74
2018-01-04 22:00:00 16 17 Sudoeste 32 Sudoeste 0 -- -- 75
2018-01-04 21:00:00 16 16 Sudoeste 30 Sur 0 -- -- 76
2018-01-04 20:00:00 15.8 13 Sudoeste 30 Sudoeste 0 -- -- 77
2018-01-04 19:00:00 15.8 13 Sudoeste 39 Sudoeste 0 -- -- 79
2018-01-04 18:00:00 15.9 17 Sudoeste 31 Sudoeste 0 -- -- 79
2018-01-04 17:00:00 16 10 Sudoeste 26 Oeste 0 -- -- 79
2018-01-04 16:00:00 17 13 Sudoeste 27 Sudoeste 0 -- -- 75
2018-01-04 15:00:00 17.6 11 Sudoeste 27 Sudoeste 0 -- -- 74
2018-01-04 14:00:00 17.3 16 Oeste 28 Oeste 0 -- -- 75
2018-01-04 13:00:00 17.6 14 Oeste 28 Sudoeste 0 -- -- 73
2018-01-04 12:00:00 18.3 17 Sudoeste 31 Sudoeste 0 -- -- 65
2018-01-04 11:00:00 17.5 14 Sudoeste 29 Oeste 0 -- -- 68
2018-01-04 10:00:00 18.3 18 Sudoeste 42 Sur 0 -- -- 60
2018-01-04 09:00:00 18.7 20 Sudoeste 42 Sudoeste 0 -- -- 58
2018-01-04 08:00:00 18.6 19 Sudoeste 39 Sudoeste 0 -- -- 58
2018-01-04 07:00:00 18.5 13 Sudoeste 44 Sudoeste 0 -- -- 60
2018-01-04 06:00:00 18.8 18 Sudoeste 35 Sudoeste 0 -- -- 57
2018-01-04 05:00:00 18.9 15 Sudoeste 35 Sudoeste 0 -- -- 58
2018-01-04 04:00:00 18.1 11 Sudoeste 35 Sur 0 -- -- 63
2018-01-04 03:00:00 17.6 13 Sudoeste 28 Oeste 0 -- -- 66
2018-01-04 02:00:00 19.4 13 Sudoeste 35 Sudoeste 0 -- -- 56
2018-01-04 01:00:00 19.2 10 Sudoeste 33 Sudoeste 0 -- -- 58
2018-01-04 00:00:00 19.1 12 Sudoeste 39 Sudoeste 0 -- -- 59
2018-01-03 23:00:00 18.8 18 Sudoeste 40 Sur 0 -- -- 62
2018-01-03 22:00:00 18.2 15 Sudoeste 34 Sudoeste 0 -- -- 66
2018-01-03 21:00:00 18 18 Sudoeste 38 Sur 0 -- -- 67
2018-01-03 20:00:00 18.5 21 Sudoeste 40 Sudoeste 0 -- -- 63
2018-01-03 19:00:00 18.1 27 Sudoeste 46 Sudoeste 0 -- -- 66
2018-01-03 18:00:00 17.8 25 Sudoeste 43 Sudoeste 0 -- -- 66
2018-01-03 17:00:00 18.6 23 Sudoeste 53 Sur 0 -- -- 61
2018-01-03 16:00:00 19.4 19 Sudoeste 50 Sudoeste 0 -- -- 58
2018-01-03 15:00:00 18.8 14 Sudoeste 39 Sudoeste 0 -- -- 63
2018-01-03 14:00:00 18.5 15 Sudoeste 45 Sudoeste 0 -- -- 64
2018-01-03 13:00:00 18.1 14 Sudoeste 34 Sur 0 -- -- 66
2018-01-03 12:00:00 17.8 13 Sudoeste 26 Sur 0 -- -- 65
2018-01-03 11:00:00 18.3 13 Sudoeste 31 Sur 0 -- -- 61
2018-01-03 10:00:00 16.7 6 Oeste 23 Sudoeste 0 -- -- 70
2018-01-03 09:00:00 17.3 6 Sudoeste 26 Sudoeste 0 -- -- 64
2018-01-03 08:00:00 17.1 11 Sudoeste 30 Sudoeste 0 -- -- 64
2018-01-03 07:00:00 17 13 Sudoeste 32 Sudoeste 0 -- -- 68
2018-01-03 06:00:00 15.7 12 Sudoeste 24 Sudoeste 0 -- -- 75
2018-01-03 05:00:00 15.6 12 Sudoeste 22 Sudoeste 0 -- -- 75
2018-01-03 04:00:00 15.7 9 Oeste 19 Sudoeste 0 -- -- 73
2018-01-03 03:00:00 15.5 7 Sudoeste 18 Sudoeste 0 -- -- 73
2018-01-03 02:00:00 15.4 11 Sudoeste 22 Oeste 0 -- -- 77
2018-01-03 01:00:00 16.6 10 Oeste 29 Sudoeste 0 -- -- 73
2018-01-03 00:00:00 17.1 12 Sudoeste 43 Sudoeste 0 -- -- 70
2018-01-02 23:00:00 16.2 27 Sudoeste 42 Sur 0 -- -- 74
2018-01-02 22:00:00 15.9 18 Sudoeste 35 Sudoeste 0 -- -- 73
2018-01-02 21:00:00 15.7 23 Sudoeste 43 Sur 0 -- -- 72
2018-01-02 20:00:00 15.5 19 Sudoeste 37 Sudoeste 0 -- -- 68
2018-01-02 19:00:00 15.4 24 Sudoeste 40 Sudoeste 0 -- -- 65
2018-01-02 18:00:00 15.9 19 Oeste 45 Oeste 0 -- -- 58
2018-01-02 17:00:00 14.5 12 Sudoeste 35 Oeste 0 -- -- 78
2018-01-02 16:00:00 15.3 12 Oeste 22 Oeste 0 -- -- 75
2018-01-02 15:00:00 15.4 11 Oeste 27 Oeste 0 -- -- 82
2018-01-02 14:00:00 14.9 14 Oeste 25 Oeste 0 -- -- 85
2018-01-02 13:00:00 15.3 9 Oeste 24 Sur 0 -- -- 84
2018-01-02 12:00:00 15.6 9 Sudoeste 18 Sudoeste 0 -- -- 79
2018-01-02 11:00:00 15.1 6 Sudoeste 16 Sur 0 -- -- 80
2018-01-02 10:00:00 14.2 3 Sudoeste 18 Sudoeste 0 -- -- 82
2018-01-02 09:00:00 13.7 11 Sudoeste 25 Sur 0 -- -- 82
2018-01-02 08:00:00 13.7 11 Sudoeste 27 Sur 0 -- -- 83
2018-01-02 07:00:00 13.9 10 Sudoeste 22 Sur 0 -- -- 85
2018-01-02 06:00:00 14.2 9 Sudoeste 24 Sudoeste 0 -- -- 81
2018-01-02 05:00:00 14.4 10 Sudoeste 18 Sudoeste 0 -- -- 77
2018-01-02 04:00:00 15.6 12 Sudoeste 39 Sudoeste 0 -- -- 61
2018-01-02 03:00:00 14.5 18 Sudoeste 41 Sudoeste 0 -- -- 78
2018-01-02 02:00:00 14.8 17 Oeste 31 Oeste 0 -- -- 79
2018-01-02 01:00:00 14.8 17 Oeste 32 Sudoeste 0 -- -- 78
2018-01-02 00:00:00 14.9 14 Oeste 32 Oeste 0 -- -- 75
2018-01-01 23:00:00 14.8 13 Sudoeste 36 Sudoeste 0 -- -- 73
2018-01-01 22:00:00 14.8 16 Sudoeste 49 Oeste 0 -- -- 71
2018-01-01 21:00:00 15 20 Sudoeste 51 Sudoeste 0 -- -- 64
2018-01-01 20:00:00 15 17 Sudoeste 50 Sudoeste 0 -- -- 59
2018-01-01 19:00:00 15.3 23 Sudoeste 50 Sudoeste 0 -- -- 44
2018-01-01 18:00:00 14.5 23 Sudoeste 46 Sudoeste 0 -- -- 56
2018-01-01 17:00:00 14.3 15 Sudoeste 40 Oeste 0 -- -- 56
2018-01-01 16:00:00 14.3 22 Sudoeste 48 Sudoeste 0 -- -- 60
2018-01-01 15:00:00 14.8 15 Sudoeste 32 Oeste 0 -- -- 65
2018-01-01 14:00:00 15.1 12 Sudoeste 28 Sudoeste 0 -- -- 60
2018-01-01 13:00:00 14.5 13 Oeste 26 Oeste 0 -- -- 53
2018-01-01 12:00:00 14 14 Norte 29 Noroeste 0 -- -- 52
2018-01-01 11:00:00 13.7 21 Norte 42 Noroeste 0 -- -- 50
2018-01-01 10:00:00 13.6 19 Noroeste 33 Noroeste 0 -- -- 54
2018-01-01 09:00:00 13.4 19 Noroeste 41 Oeste 0 -- -- 55
2018-01-01 08:00:00 13.4 25 Noroeste 52 Norte 0 -- -- 59
2018-01-01 07:00:00 13.5 26 Noroeste 54 Oeste 0 -- -- 61
2018-01-01 06:00:00 13.4 23 Noroeste 65 Noroeste 0 -- -- 60
2018-01-01 05:00:00 14 26 Noroeste 59 Norte 0 -- -- 61
2018-01-01 04:00:00 14.1 26 Noroeste 54 Noroeste 0 -- -- 63
2018-01-01 03:00:00 13.9 19 Noroeste 54 Norte 0 -- -- 70
2018-01-01 02:00:00 14.6 30 Noroeste 66 Noroeste 0 -- -- 65
2018-01-01 01:00:00 15.3 32 Noroeste 57 Oeste 0 -- -- 76
2018-01-01 00:00:00 15.2 15 Oeste 30 Sudoeste 0 -- -- 81
2017-12-31 23:00:00 15.2 12 Sudoeste 37 Oeste 0 -- -- 83
2017-12-31 22:00:00 15.9 21 Sudoeste 58 Oeste 0 -- -- 74
2017-12-31 21:00:00 16.6 26 Sudoeste 61 Sudoeste 0 -- -- 66
2017-12-31 20:00:00 16.4 20 Sudoeste 53 Sudoeste 0 -- -- 67
2017-12-31 19:00:00 16 17 Sudoeste 43 Oeste 0 -- -- 70
2017-12-31 18:00:00 16.8 15 Sudoeste 57 Oeste 0 -- -- 57
2017-12-31 17:00:00 17.1 10 Sudoeste 40 Sudoeste 0 -- -- 54
2017-12-31 16:00:00 16.5 7 Sudoeste 33 Sudoeste 0 -- -- 80
2017-12-31 15:00:00 16.1 16 Sudoeste 33 Oeste 0 -- -- 82
2017-12-31 14:00:00 17.2 13 Sudoeste 29 Sudoeste 0 -- -- 76
2017-12-31 13:00:00 17.8 13 Oeste 23 Oeste 0 -- -- 62
2017-12-31 12:00:00 17 3 Este 10 Nordeste 0 -- -- 74
2017-12-31 11:00:00 16.1 4 Sudeste 12 Sur 0 -- -- 76
2017-12-31 10:00:00 15.7 5 Este 13 Sur 0 -- -- 75
2017-12-31 09:00:00 14.1 5 Sudeste 17 Sur 0 -- -- 81
2017-12-31 08:00:00 12.7 6 Sudeste 14 Sur 0 -- -- 82
2017-12-31 07:00:00 12.5 8 Sur 14 Sur 0 -- -- 81
2017-12-31 06:00:00 12.5 9 Sur 14 Sur 0 -- -- 81
2017-12-31 05:00:00 12.7 8 Sur 14 Sur 0 -- -- 81
2017-12-31 04:00:00 12.7 9 Sur 16 Sur 0 -- -- 81
2017-12-31 03:00:00 13.2 10 Sur 15 Sur 0 -- -- 80
2017-12-31 02:00:00 13.6 9 Sur 18 Sur 0 -- -- 78
2017-12-31 01:00:00 13.9 12 Sur 17 Sur 0 -- -- 78